Time;durP1;ratioP1;P1;durP2;ratioP2;P2;SDS_P1;SDS_P2;PMS_P1;PMS_P2;Temp;Humidity;BMP_temperature;BMP_pressure;BME280_temperature;BME280_humidity;BME280_pressure;Samples;Min_cycle;Max_cycle;Signal;HPM_P1;HPM_P2
2022/11/22 00:00:17;;;;;;;5.00;1.73;;;10.70;56.40;;;;;;4996401;28;20074;-57
2022/11/22 00:02:45;;;;;;;8.23;1.92;;;10.70;56.40;;;;;;5004578;28;20054;-59
2022/11/22 00:05:12;;;;;;;7.38;1.52;;;10.70;56.40;;;;;;5002538;28;20046;-53
2022/11/22 00:07:40;;;;;;;7.70;1.88;;;10.70;56.40;;;;;;5003037;28;20057;-59
2022/11/22 00:10:09;;;;;;;4.25;1.73;;;10.70;56.40;;;;;;5001841;28;20057;-58
2022/11/22 00:12:36;;;;;;;8.70;1.77;;;10.70;56.40;;;;;;4999806;28;20054;-51
2022/11/22 00:15:04;;;;;;;6.78;1.80;;;10.70;56.40;;;;;;5001306;28;20639;-56
2022/11/22 00:17:33;;;;;;;8.35;2.38;;;10.70;56.40;;;;;;5005340;28;20050;-59
2022/11/22 00:20:01;;;;;;;5.97;1.80;;;10.70;56.40;;;;;;5004614;28;20057;-52
2022/11/22 00:22:28;;;;;;;4.38;2.00;;;10.70;56.50;;;;;;5000292;28;20529;-55
2022/11/22 00:24:55;;;;;;;5.20;1.60;;;10.70;56.50;;;;;;5002291;28;20057;-54
2022/11/22 00:27:22;;;;;;;4.38;1.63;;;10.70;56.40;;;;;;4999918;28;20050;-57
2022/11/22 00:29:50;;;;;;;3.85;1.83;;;10.70;56.50;;;;;;5000825;28;20046;-58
2022/11/22 00:32:17;;;;;;;4.75;1.80;;;10.70;56.50;;;;;;4999382;28;20058;-60
2022/11/22 00:34:45;;;;;;;4.63;1.60;;;10.70;56.50;;;;;;5003524;28;20410;-56
2022/11/22 00:37:13;;;;;;;5.45;1.98;;;10.70;56.60;;;;;;5002189;28;20497;-60
2022/11/22 00:39:40;;;;;;;6.25;1.67;;;10.60;56.50;;;;;;5002230;28;20072;-60
2022/11/22 00:42:07;;;;;;;4.32;1.70;;;10.60;56.60;;;;;;4998097;28;20734;-59
2022/11/22 00:44:34;;;;;;;4.38;1.45;;;10.60;56.60;;;;;;5003680;28;20054;-60
2022/11/22 00:47:01;;;;;;;6.05;2.03;;;10.70;56.70;;;;;;4998949;28;20076;-58
2022/11/22 00:49:29;;;;;;;4.28;1.63;;;10.70;56.70;;;;;;5003049;28;20058;-60
2022/11/22 00:51:57;;;;;;;5.20;1.83;;;10.60;56.70;;;;;;5001542;28;20061;-58
2022/11/22 00:54:24;;;;;;;6.05;1.75;;;10.70;56.80;;;;;;5001471;28;20056;-59
2022/11/22 00:56:52;;;;;;;6.40;1.52;;;10.70;56.80;;;;;;5002852;28;20410;-58
2022/11/22 00:59:19;;;;;;;4.90;1.88;;;10.70;56.70;;;;;;5002444;28;20058;-57
2022/11/22 01:01:47;;;;;;;8.25;1.98;;;10.60;56.70;;;;;;5001292;28;20061;-59
2022/11/22 01:04:14;;;;;;;7.88;1.90;;;10.70;56.80;;;;;;5002323;28;20495;-60
2022/11/22 01:06:41;;;;;;;6.97;1.67;;;10.70;56.90;;;;;;5002050;28;20057;-60
2022/11/22 01:09:11;;;;;;;6.32;1.77;;;10.70;57.10;;;;;;5002070;28;20132;-60
2022/11/22 01:11:40;;;;;;;5.38;1.77;;;10.60;57.10;;;;;;5000374;28;20049;-59
2022/11/22 01:14:08;;;;;;;4.07;1.48;;;10.70;57.20;;;;;;5002595;28;20042;-60
2022/11/22 01:16:35;;;;;;;4.38;1.48;;;10.70;57.20;;;;;;5001617;28;20056;-59
2022/11/22 01:19:02;;;;;;;4.43;1.55;;;10.70;57.20;;;;;;5003241;28;20042;-59
2022/11/22 01:21:29;;;;;;;4.82;1.50;;;10.70;57.20;;;;;;5000697;28;20064;-59
2022/11/22 01:23:57;;;;;;;3.67;1.27;;;10.70;57.20;;;;;;5003690;28;20057;-59
2022/11/22 01:26:25;;;;;;;5.18;1.38;;;10.70;57.70;;;;;;5001105;28;20049;-60
2022/11/22 01:35:37;;;;;;;5.88;1.70;;;10.70;57.40;;;;;;5009670;28;20509;-59
2022/11/22 01:38:04;;;;;;;3.30;1.35;;;10.70;57.20;;;;;;5003833;28;20057;-59
2022/11/22 01:40:31;;;;;;;3.10;1.30;;;10.70;57.30;;;;;;5001721;28;20053;-60
2022/11/22 01:43:01;;;;;;;2.50;1.15;;;10.70;57.30;;;;;;5003926;28;20049;-60
2022/11/22 01:45:45;;;;;;;1.42;0.90;;;10.70;57.40;;;;;;5001765;28;20100;-60
2022/11/22 01:48:42;;;;;;;1.98;0.80;;;10.70;57.40;;;;;;5002636;28;20050;-59
2022/11/22 01:51:17;;;;;;;3.45;1.08;;;10.70;57.40;;;;;;4994592;28;20054;-60
2022/11/22 01:53:44;;;;;;;3.17;1.00;;;10.70;57.40;;;;;;5003518;28;20053;-59
2022/11/22 01:56:16;;;;;;;1.38;0.77;;;10.70;57.30;;;;;;4996669;28;20050;-52
2022/11/22 01:58:46;;;;;;;1.95;0.70;;;10.70;57.40;;;;;;5002801;28;20421;-59
2022/11/22 02:01:14;;;;;;;2.55;1.02;;;10.70;57.40;;;;;;4999646;28;20509;-59
2022/11/22 02:03:44;;;;;;;2.35;0.73;;;10.70;57.40;;;;;;5000588;28;20073;-60
2022/11/22 02:06:12;;;;;;;4.85;1.13;;;10.70;57.40;;;;;;4989174;28;20061;-59
2022/11/22 02:08:44;;;;;;;1.65;0.80;;;10.70;57.40;;;;;;4988710;28;20058;-60
2022/11/22 02:11:13;;;;;;;13.13;1.30;;;10.70;57.40;;;;;;4992117;28;20057;-59
2022/11/22 02:13:43;;;;;;;1.70;0.77;;;10.70;57.30;;;;;;5000171;28;20054;-59
2022/11/22 02:16:12;;;;;;;2.72;0.73;;;10.70;57.30;;;;;;4998037;28;20053;-56
2022/11/22 02:18:39;;;;;;;2.33;0.55;;;10.70;57.20;;;;;;4996667;28;20057;-57
2022/11/22 02:24:36;;;;;;;2.58;0.75;;;10.70;57.20;;;;;;5022135;28;20056;-60
2022/11/22 02:27:04;;;;;;;3.00;0.70;;;10.70;57.20;;;;;;5020258;28;20063;-60
2022/11/22 02:29:32;;;;;;;1.65;0.60;;;10.70;57.10;;;;;;5021020;28;20053;-57
2022/11/22 02:32:00;;;;;;;4.18;0.70;;;10.70;57.10;;;;;;5015304;28;20057;-60
2022/11/22 02:34:27;;;;;;;1.48;0.65;;;10.70;57.10;;;;;;5021141;28;20053;-59
2022/11/22 02:36:54;;;;;;;1.58;0.50;;;10.70;57.00;;;;;;5018042;28;20521;-59
2022/11/22 02:39:26;;;;;;;2.83;0.98;;;10.70;57.00;;;;;;5016316;28;20576;-60
2022/11/22 02:41:54;;;;;;;1.75;0.57;;;10.70;57.00;;;;;;5016321;28;20065;-58
2022/11/22 02:44:24;;;;;;;1.88;0.77;;;10.70;57.00;;;;;;5021841;28;20073;-59
2022/11/22 02:46:53;;;;;;;1.67;0.50;;;10.60;57.00;;;;;;5018281;28;20053;-58
2022/11/22 02:49:21;;;;;;;1.20;0.60;;;10.60;56.90;;;;;;5018562;28;20696;-55
2022/11/22 02:51:50;;;;;;;1.33;0.52;;;10.60;57.00;;;;;;5019188;28;20481;-60
2022/11/22 02:54:17;;;;;;;3.67;0.55;;;10.60;56.90;;;;;;5021243;28;20057;-59
2022/11/22 02:56:44;;;;;;;3.60;0.73;;;10.60;56.90;;;;;;5021316;28;20058;-59
2022/11/22 02:59:11;;;;;;;2.88;0.70;;;10.60;56.90;;;;;;5021836;28;20065;-59
2022/11/22 03:01:40;;;;;;;1.27;0.65;;;10.60;56.90;;;;;;5018315;28;20050;-60
2022/11/22 03:04:23;;;;;;;3.05;0.73;;;10.60;56.90;;;;;;5021054;28;20057;-58
2022/11/22 03:06:51;;;;;;;3.90;0.80;;;10.60;56.90;;;;;;5020725;28;20053;-45
2022/11/22 03:09:18;;;;;;;5.22;0.82;;;10.60;56.90;;;;;;5021324;28;20478;-50
2022/11/22 03:11:46;;;;;;;1.75;0.80;;;10.60;56.90;;;;;;5019636;28;20413;-50
2022/11/22 03:14:14;;;;;;;2.17;0.50;;;10.60;56.90;;;;;;5019206;28;20061;-45
2022/11/22 03:16:44;;;;;;;5.38;0.90;;;10.50;56.80;;;;;;5019960;28;20054;-45
2022/11/22 03:19:11;;;;;;;2.38;0.60;;;10.50;56.90;;;;;;5020912;28;20080;-45
2022/11/22 03:21:40;;;;;;;2.55;0.43;;;10.50;56.90;;;;;;5017732;28;20576;-47
2022/11/22 03:24:08;;;;;;;4.78;0.80;;;10.50;56.90;;;;;;5021860;28;20060;-53
2022/11/22 03:26:36;;;;;;;4.20;0.95;;;10.50;56.80;;;;;;5022650;28;20401;-53
2022/11/22 03:29:03;;;;;;;6.00;0.90;;;10.50;56.90;;;;;;5022602;28;20981;-49
2022/11/22 03:31:31;;;;;;;3.88;1.10;;;10.50;56.90;;;;;;5020705;28;20061;-49
2022/11/22 03:33:59;;;;;;;4.75;1.02;;;10.50;56.90;;;;;;5026598;28;20060;-44
2022/11/22 03:36:26;;;;;;;7.05;1.05;;;10.40;56.90;;;;;;5024604;28;20041;-45
2022/11/22 03:38:53;;;;;;;6.15;1.00;;;10.40;56.90;;;;;;5024044;28;20050;-44
2022/11/22 03:41:21;;;;;;;5.03;1.48;;;10.40;56.90;;;;;;5022494;28;20049;-48
2022/11/22 03:43:48;;;;;;;4.80;1.33;;;10.40;56.90;;;;;;5025263;28;20057;-46
2022/11/22 03:46:16;;;;;;;5.55;1.10;;;10.40;57.00;;;;;;5022090;28;20042;-44
2022/11/22 03:48:43;;;;;;;10.27;1.67;;;10.40;57.00;;;;;;5026061;28;20072;-44
2022/11/22 03:51:11;;;;;;;4.55;1.17;;;10.30;57.00;;;;;;5023687;28;20049;-43
2022/11/22 03:53:39;;;;;;;8.27;1.15;;;10.40;57.10;;;;;;5025661;28;20060;-45
2022/11/22 03:56:06;;;;;;;8.93;1.50;;;10.30;57.10;;;;;;5023788;28;20049;-52
2022/11/22 03:58:33;;;;;;;5.82;0.90;;;10.40;57.20;;;;;;5025226;28;20053;-46
2022/11/22 04:01:01;;;;;;;7.97;1.63;;;10.30;57.10;;;;;;5020999;28;20056;-43
2022/11/22 04:03:28;;;;;;;9.32;1.65;;;10.30;57.10;;;;;;5024729;28;20532;-48
2022/11/22 04:05:55;;;;;;;6.25;1.20;;;10.30;57.10;;;;;;5024122;28;20053;-43
2022/11/22 04:08:24;;;;;;;9.02;1.70;;;10.30;57.10;;;;;;5025435;28;20080;-46
2022/11/22 04:10:51;;;;;;;5.03;1.25;;;10.30;57.00;;;;;;5021825;28;20058;-45
2022/11/22 04:13:19;;;;;;;7.70;1.30;;;10.30;57.00;;;;;;5024824;28;20053;-44
2022/11/22 04:15:45;;;;;;;8.73;1.27;;;10.30;57.00;;;;;;5019728;28;20508;-52
2022/11/22 04:18:13;;;;;;;7.65;1.60;;;10.30;57.00;;;;;;5024060;28;20056;-46
2022/11/22 04:23:27;;;;;;;7.32;1.33;;;10.30;56.90;;;;;;5024736;28;20060;-46
2022/11/22 04:25:54;;;;;;;5.70;1.38;;;10.30;56.80;;;;;;5023571;28;20057;-44
2022/11/22 04:28:23;;;;;;;8.73;1.35;;;10.30;56.70;;;;;;5023806;28;20049;-44
2022/11/22 04:33:36;;;;;;;6.43;1.50;;;10.30;56.70;;;;;;5030959;28;20120;-46
2022/11/22 04:36:03;;;;;;;4.85;1.40;;;10.30;56.70;;;;;;5024925;28;20378;-43
2022/11/22 04:38:31;;;;;;;10.85;1.70;;;10.30;56.70;;;;;;5021023;28;20060;-45
2022/11/22 04:40:59;;;;;;;11.52;2.05;;;10.30;56.60;;;;;;5022497;28;20042;-49
2022/11/22 04:46:30;;;;;;;7.97;1.40;;;10.30;56.50;;;;;;4959025;28;20046;-46
2022/11/22 04:48:57;;;;;;;12.07;1.25;;;10.30;56.50;;;;;;4959347;28;20055;-46
2022/11/22 04:54:10;;;;;;;6.63;1.20;;;10.30;56.40;;;;;;5028847;28;20504;-48
2022/11/22 04:56:37;;;;;;;7.60;3.05;;;10.30;56.30;;;;;;5024074;28;20053;-48
2022/11/22 04:59:04;;;;;;;10.70;3.00;;;10.30;56.80;;;;;;5024754;28;20053;-45
2022/11/22 05:01:32;;;;;;;9.90;1.95;;;10.30;56.30;;;;;;5016194;28;20053;-48
2022/11/22 05:04:00;;;;;;;15.60;2.08;;;10.20;56.20;;;;;;5021759;28;20053;-46
2022/11/22 05:06:27;;;;;;;5.65;1.38;;;10.20;56.20;;;;;;5021626;28;20061;-46
2022/11/22 05:08:54;;;;;;;11.88;2.00;;;10.20;56.10;;;;;;5022852;28;20045;-46
2022/11/22 05:11:23;;;;;;;6.05;1.17;;;10.20;56.10;;;;;;5016432;28;20507;-48
2022/11/22 05:13:50;;;;;;;9.27;1.60;;;10.20;56.10;;;;;;5024844;28;20056;-44
2022/11/22 05:16:17;;;;;;;7.00;1.27;;;10.10;56.00;;;;;;5016341;28;20049;-43
2022/11/22 05:18:57;;;;;;;8.40;1.77;;;10.10;56.00;;;;;;5019212;28;20050;-44
2022/11/22 05:21:26;;;;;;;8.68;1.60;;;10.10;56.00;;;;;;5019837;28;20493;-43
2022/11/22 05:23:55;;;;;;;9.15;1.50;;;10.10;56.10;;;;;;5024101;28;20064;-46
2022/11/22 05:26:26;;;;;;;8.23;1.65;;;10.10;56.10;;;;;;5020136;28;20056;-48
2022/11/22 05:28:53;;;;;;;8.60;1.55;;;10.00;56.00;;;;;;5021701;28;20057;-47
2022/11/22 05:31:22;;;;;;;7.30;1.52;;;10.00;56.00;;;;;;5014508;28;20049;-46
2022/11/22 05:33:51;;;;;;;7.00;1.60;;;10.00;56.00;;;;;;5021276;28;20049;-47
2022/11/22 05:36:19;;;;;;;9.32;1.20;;;10.00;56.00;;;;;;5016676;28;20061;-49
2022/11/22 05:38:47;;;;;;;10.45;1.50;;;10.00;56.00;;;;;;5021526;28;20049;-45
2022/11/22 05:41:16;;;;;;;7.13;1.23;;;10.00;56.00;;;;;;5022453;28;20072;-44
2022/11/22 05:43:44;;;;;;;8.63;1.38;;;9.90;55.90;;;;;;5021317;28;20049;-47
2022/11/22 05:46:14;;;;;;;6.57;1.27;;;9.90;55.80;;;;;;5019246;28;20072;-49
2022/11/22 05:48:44;;;;;;;8.35;1.45;;;9.90;55.80;;;;;;5021472;28;20061;-45
2022/11/22 05:51:14;;;;;;;6.50;1.27;;;9.90;55.80;;;;;;5022679;28;20057;-46
2022/11/22 05:53:42;;;;;;;8.27;1.63;;;9.90;55.80;;;;;;5021862;28;20049;-46
2022/11/22 05:56:11;;;;;;;7.32;1.60;;;9.80;55.70;;;;;;5022485;28;20128;-49
2022/11/22 05:58:38;;;;;;;11.32;1.42;;;9.80;55.70;;;;;;5023159;28;20140;-46
2022/11/22 06:01:08;;;;;;;6.90;1.42;;;9.80;55.70;;;;;;5019978;28;20064;-48
2022/11/22 06:03:36;;;;;;;10.18;1.80;;;9.80;55.80;;;;;;5023340;28;20068;-49
2022/11/22 06:06:04;;;;;;;10.38;2.38;;;9.80;55.90;;;;;;5021807;28;20060;-46
2022/11/22 06:08:33;;;;;;;9.27;1.70;;;9.80;56.00;;;;;;5022670;28;20049;-48
2022/11/22 06:11:05;;;;;;;9.70;1.63;;;9.70;56.10;;;;;;5023163;28;20061;-44
2022/11/22 06:13:36;;;;;;;11.20;2.22;;;9.70;56.20;;;;;;5023433;28;20056;-46
2022/11/22 06:16:03;;;;;;;14.45;3.17;;;9.70;56.80;;;;;;5021541;28;20053;-47
2022/11/22 06:18:33;;;;;;;11.60;2.88;;;9.70;56.40;;;;;;5023184;28;20053;-45
2022/11/22 06:21:01;;;;;;;6.50;2.40;;;9.80;56.50;;;;;;5019929;28;20053;-43
2022/11/22 06:23:28;;;;;;;9.55;2.10;;;9.70;56.50;;;;;;5022798;28;20061;-46
2022/11/22 06:25:59;;;;;;;6.63;1.50;;;9.80;56.60;;;;;;5022646;28;20065;-50
2022/11/22 06:28:28;;;;;;;8.60;1.90;;;9.80;56.60;;;;;;5017488;28;20064;-45
2022/11/22 06:31:01;;;;;;;5.43;1.30;;;9.80;56.60;;;;;;5017206;28;20822;-47
2022/11/22 06:33:28;;;;;;;8.77;1.58;;;9.80;56.60;;;;;;5019673;28;20414;-45
2022/11/22 06:36:01;;;;;;;6.68;1.33;;;9.80;56.50;;;;;;5020577;28;20057;-43
2022/11/22 06:38:28;;;;;;;13.27;2.40;;;9.80;56.50;;;;;;5019228;28;20064;-47
2022/11/22 06:40:59;;;;;;;5.80;1.48;;;9.80;56.40;;;;;;5015889;28;20045;-47
2022/11/22 06:43:27;;;;;;;6.93;1.48;;;9.80;56.30;;;;;;5020997;28;20425;-47
2022/11/22 06:45:56;;;;;;;4.20;1.27;;;9.80;56.30;;;;;;5020678;28;20053;-46
2022/11/22 06:48:23;;;;;;;5.05;1.60;;;9.70;56.20;;;;;;5023140;28;20053;-43
2022/11/22 06:50:50;;;;;;;5.72;1.30;;;9.70;56.20;;;;;;5019421;28;20049;-50
2022/11/22 06:53:19;;;;;;;5.47;1.40;;;9.70;56.20;;;;;;5023351;28;20060;-43
2022/11/22 06:55:46;;;;;;;9.20;1.85;;;9.70;56.20;;;;;;5023051;28;20486;-49
2022/11/22 06:58:13;;;;;;;7.38;1.48;;;9.70;56.20;;;;;;5021337;28;20049;-48
2022/11/22 07:00:40;;;;;;;8.63;1.45;;;9.70;56.20;;;;;;5018237;28;20046;-45
2022/11/22 07:03:08;;;;;;;7.82;1.70;;;9.70;56.20;;;;;;5020495;28;20060;-45
2022/11/22 07:05:35;;;;;;;9.63;1.60;;;9.70;56.30;;;;;;5026401;28;20413;-44
2022/11/22 07:08:02;;;;;;;14.32;2.17;;;9.70;56.40;;;;;;5025271;28;20125;-45
2022/11/22 07:10:31;;;;;;;9.52;1.85;;;9.70;56.40;;;;;;5023992;28;20061;-45
2022/11/22 07:12:58;;;;;;;11.23;1.83;;;9.70;56.40;;;;;;5024454;28;20060;-50
2022/11/22 07:15:25;;;;;;;10.18;1.75;;;9.70;56.50;;;;;;5021851;28;20061;-51
2022/11/22 07:17:52;;;;;;;9.63;1.42;;;9.70;56.50;;;;;;5025893;28;20045;-51
2022/11/22 07:20:19;;;;;;;11.80;2.20;;;9.80;56.50;;;;;;5022471;28;20417;-51
2022/11/22 07:22:47;;;;;;;8.60;1.90;;;9.80;56.40;;;;;;5026741;28;20064;-51
2022/11/22 07:25:14;;;;;;;9.32;2.03;;;9.80;56.40;;;;;;5026117;28;20054;-47
2022/11/22 07:27:43;;;;;;;7.50;1.65;;;9.80;56.40;;;;;;5025338;28;20076;-46
2022/11/22 07:30:11;;;;;;;7.40;1.42;;;9.80;56.40;;;;;;5023429;28;20068;-49
2022/11/22 07:32:38;;;;;;;15.45;2.22;;;9.80;56.40;;;;;;5025572;28;20049;-47
2022/11/22 07:35:06;;;;;;;10.63;1.88;;;9.80;56.40;;;;;;5026335;28;20049;-51
2022/11/22 07:37:33;;;;;;;5.90;2.08;;;9.80;56.40;;;;;;5026206;28;20045;-44
2022/11/22 07:40:01;;;;;;;10.32;2.38;;;9.80;56.50;;;;;;5025376;28;20061;-52
2022/11/22 07:42:28;;;;;;;10.75;1.83;;;9.80;56.80;;;;;;5025371;28;20509;-44
2022/11/22 07:44:56;;;;;;;8.15;1.75;;;9.80;56.50;;;;;;5024995;28;20064;-43
2022/11/22 07:47:24;;;;;;;7.40;1.80;;;9.80;56.50;;;;;;5023340;28;20052;-44
2022/11/22 07:49:51;;;;;;;7.32;1.55;;;9.80;56.50;;;;;;5020273;28;20049;-49
2022/11/22 07:52:18;;;;;;;12.90;1.75;;;9.90;56.50;;;;;;5022523;28;20053;-51
2022/11/22 07:54:45;;;;;;;9.95;2.00;;;9.90;56.50;;;;;;5017188;28;20060;-51
2022/11/22 07:57:12;;;;;;;7.72;1.70;;;9.90;56.50;;;;;;5019300;28;20045;-50
2022/11/22 07:59:40;;;;;;;9.45;1.92;;;9.90;56.50;;;;;;5023995;28;20053;-47
2022/11/22 08:02:11;;;;;;;8.80;1.90;;;9.90;56.50;;;;;;5019926;28;20056;-45
2022/11/22 08:04:38;;;;;;;9.40;2.03;;;9.90;56.50;;;;;;5024448;28;20068;-44
2022/11/22 08:07:05;;;;;;;6.50;2.33;;;9.90;56.50;;;;;;5024069;28;20052;-52
2022/11/22 08:09:32;;;;;;;14.95;2.75;;;9.90;56.50;;;;;;5023243;28;20053;-44
2022/11/22 08:12:00;;;;;;;14.35;2.65;;;9.90;56.50;;;;;;5020312;28;20493;-43
2022/11/22 08:14:27;;;;;;;9.70;2.13;;;10.00;56.50;;;;;;5023247;28;20050;-45
2022/11/22 08:16:55;;;;;;;5.75;1.70;;;10.00;56.50;;;;;;5021489;28;20062;-47
2022/11/22 08:19:23;;;;;;;12.30;2.20;;;10.00;56.40;;;;;;5024831;28;20064;-45
2022/11/22 08:21:51;;;;;;;12.85;2.05;;;10.00;56.40;;;;;;5020665;28;20421;-44
2022/11/22 08:24:21;;;;;;;5.97;1.70;;;10.00;56.30;;;;;;5019822;28;20045;-50
2022/11/22 08:26:48;;;;;;;4.95;1.45;;;10.00;56.30;;;;;;5020686;28;20498;-45
2022/11/22 08:29:15;;;;;;;10.65;1.83;;;10.00;56.30;;;;;;5024995;28;20531;-46
2022/11/22 08:31:43;;;;;;;8.07;1.80;;;10.00;56.30;;;;;;5023044;28;20049;-45
2022/11/22 08:34:10;;;;;;;8.32;1.30;;;10.00;56.30;;;;;;5023968;28;20057;-44
2022/11/22 08:36:38;;;;;;;8.55;2.00;;;10.00;56.30;;;;;;5022887;28;20053;-45
2022/11/22 08:39:05;;;;;;;11.88;1.60;;;10.00;56.20;;;;;;5020696;28;20049;-47
2022/11/22 08:41:33;;;;;;;15.70;1.85;;;10.00;56.10;;;;;;5017135;28;20058;-43
2022/11/22 08:44:00;;;;;;;12.05;2.35;;;10.00;55.90;;;;;;5021550;28;20049;-46
2022/11/22 08:46:27;;;;;;;11.68;1.83;;;10.00;55.90;;;;;;5020816;28;20394;-47
2022/11/22 08:48:54;;;;;;;9.82;1.70;;;10.10;56.20;;;;;;5022366;28;20049;-46
2022/11/22 08:51:21;;;;;;;7.05;1.90;;;10.00;55.80;;;;;;5019721;28;20064;-45
2022/11/22 08:53:50;;;;;;;10.00;1.92;;;10.10;55.90;;;;;;5022644;28;20076;-45
2022/11/22 08:56:17;;;;;;;7.93;1.77;;;10.10;55.90;;;;;;5023453;28;20061;-48
2022/11/22 08:58:44;;;;;;;9.23;1.83;;;10.10;55.90;;;;;;5022854;28;20420;-46
2022/11/22 09:01:13;;;;;;;52.92;19.75;;;10.10;55.90;;;;;;5018818;28;20060;-48
2022/11/22 09:03:40;;;;;;;24.70;7.80;;;10.10;56.00;;;;;;5019998;28;20053;-49
2022/11/22 09:06:10;;;;;;;13.40;2.92;;;10.10;56.00;;;;;;5024652;28;20390;-48
2022/11/22 09:08:38;;;;;;;11.88;2.40;;;10.20;56.00;;;;;;5023339;28;20045;-43
2022/11/22 09:11:08;;;;;;;9.95;1.88;;;10.20;56.10;;;;;;5018237;28;20489;-44
2022/11/22 09:13:36;;;;;;;7.65;1.33;;;10.20;55.90;;;;;;5020793;28;20064;-47
2022/11/22 09:16:05;;;;;;;5.60;1.35;;;10.30;55.90;;;;;;5019178;28;20501;-43
2022/11/22 09:18:32;;;;;;;13.30;1.80;;;10.30;55.70;;;;;;5019811;28;20050;-43
2022/11/22 09:20:59;;;;;;;12.02;1.70;;;10.30;55.50;;;;;;5016895;28;20064;-46
2022/11/22 09:23:27;;;;;;;13.30;2.22;;;10.40;55.30;;;;;;5023562;28;20060;-44
2022/11/22 09:25:58;;;;;;;6.55;1.83;;;10.40;55.10;;;;;;5023756;28;20050;-44
2022/11/22 09:28:28;;;;;;;12.90;1.52;;;10.40;54.90;;;;;;5024825;28;20061;-47
2022/11/22 09:30:59;;;;;;;5.28;1.45;;;10.40;54.70;;;;;;5021638;28;20204;-46
2022/11/22 09:33:26;;;;;;;8.10;1.88;;;10.50;54.60;;;;;;5022554;28;20497;-46
2022/11/22 09:35:59;;;;;;;9.48;1.77;;;10.40;54.50;;;;;;5023721;28;20053;-45
2022/11/22 09:38:27;;;;;;;6.80;1.40;;;10.50;54.50;;;;;;5023866;28;20065;-44
2022/11/22 09:40:54;;;;;;;7.38;1.50;;;10.50;54.60;;;;;;5022034;28;20079;-44
2022/11/22 09:43:35;;;;;;;12.27;1.90;;;10.50;54.60;;;;;;5023885;28;20061;-41
2022/11/22 09:46:15;;;;;;;5.53;1.30;;;10.50;54.40;;;;;;5022830;28;20421;-46
2022/11/22 09:49:13;;;;;;;11.52;2.10;;;10.50;54.50;;;;;;5024673;28;20057;-46
2022/11/22 09:51:46;;;;;;;14.63;1.95;;;10.50;54.50;;;;;;5006115;28;20053;-53
2022/11/22 09:54:18;;;;;;;17.13;1.60;;;10.50;54.50;;;;;;5024188;28;20060;-49
2022/11/22 09:56:46;;;;;;;12.77;1.75;;;10.50;54.50;;;;;;5023897;28;20057;-48
2022/11/22 09:59:20;;;;;;;13.05;1.63;;;10.60;54.60;;;;;;5023710;28;20057;-47
2022/11/22 10:01:51;;;;;;;9.83;1.63;;;10.60;54.60;;;;;;5019469;28;20049;-45
2022/11/22 10:04:22;;;;;;;12.77;1.85;;;10.60;54.60;;;;;;5022342;28;20057;-45
2022/11/22 10:06:54;;;;;;;10.48;1.45;;;10.60;54.60;;;;;;5023427;28;20506;-47
2022/11/22 10:09:30;;;;;;;7.78;1.48;;;10.70;54.60;;;;;;5023294;28;20512;-44
2022/11/22 10:12:02;;;;;;;9.40;1.88;;;10.70;54.60;;;;;;5021711;28;20053;-46
2022/11/22 10:14:38;;;;;;;8.50;1.80;;;10.70;54.60;;;;;;5023453;28;20061;-49
2022/11/22 10:17:28;;;;;;;6.68;1.45;;;10.80;54.50;;;;;;5021739;28;20524;-51
2022/11/22 10:20:04;;;;;;;12.82;1.50;;;10.80;54.50;;;;;;5020431;28;20510;-44
2022/11/22 10:22:33;;;;;;;7.13;1.27;;;10.90;54.50;;;;;;5021963;28;20111;-48
2022/11/22 10:25:03;;;;;;;8.70;1.30;;;10.90;54.40;;;;;;5023458;28;20049;-44
2022/11/22 10:27:32;;;;;;;7.28;1.52;;;10.90;54.30;;;;;;5023332;28;20060;-49
2022/11/22 10:30:03;;;;;;;6.35;1.35;;;10.90;54.30;;;;;;5023143;28;20061;-43
2022/11/22 10:32:37;;;;;;;7.43;1.17;;;11.00;54.30;;;;;;5020624;28;20049;-48
2022/11/22 10:35:29;;;;;;;9.43;1.83;;;11.00;54.30;;;;;;5023409;28;20053;-44
2022/11/22 10:38:06;;;;;;;8.13;1.20;;;11.00;54.20;;;;;;5022327;28;20504;-50
2022/11/22 10:40:40;;;;;;;11.18;1.20;;;11.10;54.20;;;;;;5021712;28;20064;-44
2022/11/22 10:43:27;;;;;;;11.68;1.42;;;11.10;54.20;;;;;;5022386;28;20053;-49
2022/11/22 10:46:02;;;;;;;8.35;1.20;;;11.10;54.10;;;;;;5014803;28;20068;-47
2022/11/22 10:48:34;;;;;;;9.32;1.42;;;11.10;54.20;;;;;;5015916;28;20053;-45
2022/11/22 10:51:13;;;;;;;9.05;1.75;;;11.20;54.20;;;;;;5020224;28;20050;-47
2022/11/22 10:53:51;;;;;;;3.60;1.20;;;11.20;54.20;;;;;;5021505;28;20409;-48
2022/11/22 10:56:25;;;;;;;4.20;1.10;;;11.20;54.20;;;;;;5020996;28;20469;-47
2022/11/22 10:59:09;;;;;;;4.20;1.23;;;11.30;54.20;;;;;;5021100;28;20060;-50
2022/11/22 11:01:45;;;;;;;4.83;1.23;;;11.30;54.00;;;;;;5018966;28;20056;-50
2022/11/22 11:04:13;;;;;;;7.75;1.50;;;11.30;54.00;;;;;;5020004;28;20073;-49
2022/11/22 11:06:45;;;;;;;4.75;1.13;;;11.40;54.10;;;;;;5020975;28;20490;-48
2022/11/22 11:09:18;;;;;;;4.18;1.08;;;11.40;53.90;;;;;;5021139;28;20060;-45
2022/11/22 11:11:47;;;;;;;8.75;1.25;;;11.40;53.90;;;;;;5019397;28;20057;-46
2022/11/22 11:14:24;;;;;;;7.57;1.30;;;11.50;53.90;;;;;;5018528;28;20057;-51
2022/11/22 11:16:53;;;;;;;8.60;1.30;;;11.50;53.80;;;;;;5015458;28;20062;-48
2022/11/22 11:19:23;;;;;;;9.45;1.52;;;11.50;53.90;;;;;;5021090;28;20052;-47
2022/11/22 11:21:57;;;;;;;8.57;1.20;;;11.60;53.90;;;;;;5019124;28;20057;-46
2022/11/22 11:24:27;;;;;;;;;;;11.60;53.90;;;;;;5021510;28;20111;-48
2022/11/22 11:26:56;;;;;;;4.57;1.33;;;11.60;53.90;;;;;;5017834;28;19940;-51
2022/11/22 11:29:43;;;;;;;4.65;1.05;;;11.70;53.80;;;;;;5021793;28;20057;-49
2022/11/22 11:32:14;;;;;;;7.03;1.48;;;11.80;53.70;;;;;;5016955;28;20054;-46
2022/11/22 11:34:50;;;;;;;4.55;1.52;;;11.80;53.70;;;;;;5018186;28;20060;-46
2022/11/22 11:37:33;;;;;;;4.25;0.80;;;11.80;53.70;;;;;;5019831;28;20057;-48
2022/11/22 11:40:00;;;;;;;5.22;1.00;;;11.80;53.50;;;;;;5018645;28;20049;-51
2022/11/22 11:42:29;;;;;;;10.27;1.50;;;11.90;53.50;;;;;;5021227;28;20061;-46
2022/11/22 11:45:21;;;;;;;5.50;1.13;;;11.90;53.40;;;;;;5020136;28;20057;-43
2022/11/22 11:47:49;;;;;;;7.10;1.60;;;11.90;53.10;;;;;;5020637;28;20406;-45
2022/11/22 11:50:19;;;;;;;5.32;1.70;;;12.00;53.00;;;;;;5021265;28;20053;-47
2022/11/22 11:52:52;;;;;;;3.03;1.27;;;12.00;52.90;;;;;;5024324;28;20524;-52
2022/11/22 11:55:20;;;;;;;4.80;1.10;;;12.00;52.80;;;;;;5018626;28;20072;-46
2022/11/22 11:57:49;;;;;;;5.38;1.08;;;12.00;52.80;;;;;;5021173;28;20064;-45
2022/11/22 12:00:24;;;;;;;5.97;0.93;;;12.00;52.80;;;;;;5018126;28;20049;-47
2022/11/22 12:02:59;;;;;;;7.07;1.17;;;12.00;52.70;;;;;;5017398;28;20064;-43
2022/11/22 12:05:29;;;;;;;4.20;1.10;;;12.00;52.50;;;;;;5020116;28;20509;-45
2022/11/22 12:07:56;;;;;;;10.35;2.33;;;12.10;52.80;;;;;;5020280;28;20336;-44
2022/11/22 12:10:29;;;;;;;4.50;1.10;;;12.00;52.70;;;;;;5017867;28;20986;-43
2022/11/22 12:13:00;;;;;;;8.57;1.02;;;12.10;52.60;;;;;;5024819;28;20057;-45
2022/11/22 12:15:39;;;;;;;5.78;1.02;;;12.10;52.50;;;;;;5021649;28;20091;-42
2022/11/22 12:18:30;;;;;;;6.03;1.58;;;12.10;52.60;;;;;;5023101;28;20056;-42
2022/11/22 12:21:06;;;;;;;4.63;1.08;;;12.10;52.50;;;;;;5019737;28;20056;-42
2022/11/22 12:23:39;;;;;;;6.45;0.90;;;12.10;52.50;;;;;;5022029;28;20061;-47
2022/11/22 12:26:06;;;;;;;3.03;0.80;;;12.10;53.00;;;;;;5021341;28;20057;-45
2022/11/22 12:28:33;;;;;;;5.75;1.23;;;12.10;52.50;;;;;;5019457;28;20057;-44
2022/11/22 12:31:06;;;;;;;2.85;1.05;;;12.10;52.50;;;;;;5015945;28;20485;-48
2022/11/22 12:33:39;;;;;;;3.55;1.13;;;12.10;52.50;;;;;;5023368;28;20053;-48
2022/11/22 12:36:14;;;;;;;5.22;0.50;;;12.20;52.60;;;;;;5022143;28;20398;-47
2022/11/22 12:38:45;;;;;;;4.03;0.90;;;12.20;52.60;;;;;;5023861;28;20408;-42
2022/11/22 12:41:15;;;;;;;3.45;0.75;;;12.20;52.50;;;;;;5016405;28;20053;-44
2022/11/22 12:43:47;;;;;;;3.22;0.73;;;12.20;52.40;;;;;;5023231;28;20049;-48
2022/11/22 12:46:20;;;;;;;3.33;0.60;;;12.20;52.30;;;;;;5017084;28;20398;-46
2022/11/22 12:48:54;;;;;;;5.28;0.80;;;12.20;52.30;;;;;;5017255;28;20050;-42
2022/11/22 12:51:28;;;;;;;3.95;0.88;;;12.20;52.30;;;;;;5022101;28;20068;-44
2022/11/22 12:54:00;;;;;;;3.95;0.70;;;12.30;52.30;;;;;;5023748;28;20050;-41
2022/11/22 12:56:30;;;;;;;2.80;0.70;;;12.30;52.70;;;;;;5023131;28;20053;-45
2022/11/22 12:59:03;;;;;;;1.75;0.65;;;12.30;52.30;;;;;;5020222;28;20065;-47
2022/11/22 13:01:39;;;;;;;2.80;0.68;;;12.30;52.20;;;;;;5017358;28;20060;-42
2022/11/22 13:04:18;;;;;;;5.72;0.68;;;12.30;52.00;;;;;;5022668;28;20535;-43
2022/11/22 13:06:52;;;;;;;3.40;1.02;;;12.30;51.90;;;;;;5021635;28;20053;-41
2022/11/22 13:09:22;;;;;;;5.05;0.80;;;12.30;51.90;;;;;;5021479;28;22033;-42
2022/11/22 13:11:54;;;;;;;3.33;0.90;;;12.40;52.50;;;;;;5017787;28;20068;-41
2022/11/22 13:14:26;;;;;;;4.32;1.30;;;12.40;52.00;;;;;;5020597;28;20064;-41
2022/11/22 13:16:54;;;;;;;3.25;0.80;;;12.40;51.90;;;;;;5016531;28;20080;-42
2022/11/22 13:19:25;;;;;;;3.58;1.75;;;12.40;52.10;;;;;;5017670;28;20733;-41
2022/11/22 13:22:07;;;;;;;7.35;2.10;;;12.40;52.20;;;;;;5018097;28;20053;-42